sensor_id;sensor_type;location;lat;lon;timestamp;pressure;altitude;pressure_sealevel;temperature
74449;BMP280;62878;51.026;4.472;2022-08-19T00:00:08;-6114.94;;;24.88
74449;BMP280;62878;51.026;4.472;2022-08-19T00:02:34;-6114.25;;;24.84
74449;BMP280;62878;51.026;4.472;2022-08-19T00:05:00;-6115.78;;;24.93
74449;BMP280;62878;51.026;4.472;2022-08-19T00:07:26;-6114.44;;;24.85
74449;BMP280;62878;51.026;4.472;2022-08-19T00:09:52;-6114.75;;;24.87
74449;BMP280;62878;51.026;4.472;2022-08-19T00:12:19;-6115.44;;;24.91
74449;BMP280;62878;51.026;4.472;2022-08-19T00:14:44;-6114.84;;;24.88
74449;BMP280;62878;51.026;4.472;2022-08-19T00:17:10;-6115.19;;;24.90
74449;BMP280;62878;51.026;4.472;2022-08-19T00:19:36;-6115.09;;;24.89
74449;BMP280;62878;51.026;4.472;2022-08-19T00:22:03;-6114.59;;;24.86
74449;BMP280;62878;51.026;4.472;2022-08-19T00:24:30;-6113.75;;;24.81
74449;BMP280;62878;51.026;4.472;2022-08-19T00:26:56;-6114.75;;;24.87
74449;BMP280;62878;51.026;4.472;2022-08-19T00:29:24;-6114.25;;;24.84
74449;BMP280;62878;51.026;4.472;2022-08-19T00:31:50;-6114.75;;;24.87
74449;BMP280;62878;51.026;4.472;2022-08-19T00:34:18;-6114.69;;;24.87
74449;BMP280;62878;51.026;4.472;2022-08-19T00:36:44;-6114.75;;;24.87
74449;BMP280;62878;51.026;4.472;2022-08-19T00:39:10;-6113.84;;;24.81
74449;BMP280;62878;51.026;4.472;2022-08-19T00:41:37;-6113.94;;;24.82
74449;BMP280;62878;51.026;4.472;2022-08-19T00:44:15;-6113.94;;;24.82
74449;BMP280;62878;51.026;4.472;2022-08-19T00:46:43;-6114.25;;;24.84
74449;BMP280;62878;51.026;4.472;2022-08-19T00:49:16;-6114.00;;;24.82
74449;BMP280;62878;51.026;4.472;2022-08-19T00:51:45;-6112.09;;;24.71
74449;BMP280;62878;51.026;4.472;2022-08-19T00:54:12;-6114.25;;;24.84
74449;BMP280;62878;51.026;4.472;2022-08-19T00:56:38;-6112.16;;;24.71
74449;BMP280;62878;51.026;4.472;2022-08-19T00:59:04;-6113.75;;;24.81
74449;BMP280;62878;51.026;4.472;2022-08-19T01:01:39;-6113.25;;;24.78
74449;BMP280;62878;51.026;4.472;2022-08-19T01:04:06;-6107.31;;;24.42
74449;BMP280;62878;51.026;4.472;2022-08-19T01:06:32;-6113.69;;;24.80
74449;BMP280;62878;51.026;4.472;2022-08-19T01:09:00;-6113.25;;;24.78
74449;BMP280;62878;51.026;4.472;2022-08-19T01:11:27;-6113.25;;;24.78
74449;BMP280;62878;51.026;4.472;2022-08-19T01:13:53;-6112.84;;;24.75
74449;BMP280;62878;51.026;4.472;2022-08-19T01:16:22;-6112.41;;;24.73
74449;BMP280;62878;51.026;4.472;2022-08-19T01:18:49;-6112.75;;;24.75
74449;BMP280;62878;51.026;4.472;2022-08-19T01:21:25;-6112.59;;;24.74
74449;BMP280;62878;51.026;4.472;2022-08-19T01:23:52;-6112.75;;;24.75
74449;BMP280;62878;51.026;4.472;2022-08-19T01:26:21;-6112.66;;;24.74
74449;BMP280;62878;51.026;4.472;2022-08-19T01:28:49;-6108.97;;;24.52
74449;BMP280;62878;51.026;4.472;2022-08-19T01:31:21;-6111.75;;;24.69
74449;BMP280;62878;51.026;4.472;2022-08-19T01:33:49;-6112.41;;;24.73
74449;BMP280;62878;51.026;4.472;2022-08-19T01:36:25;-6111.66;;;24.68
74449;BMP280;62878;51.026;4.472;2022-08-19T01:38:51;-6112.00;;;24.70
74449;BMP280;62878;51.026;4.472;2022-08-19T01:41:18;-6111.59;;;24.68
74449;BMP280;62878;51.026;4.472;2022-08-19T01:43:43;-6111.75;;;24.69
74449;BMP280;62878;51.026;4.472;2022-08-19T01:46:09;-6109.91;;;24.58
74449;BMP280;62878;51.026;4.472;2022-08-19T01:48:42;-6111.84;;;24.69
74449;BMP280;62878;51.026;4.472;2022-08-19T01:51:09;-6111.41;;;24.67
74449;BMP280;62878;51.026;4.472;2022-08-19T01:53:36;-6111.41;;;24.67
74449;BMP280;62878;51.026;4.472;2022-08-19T01:56:03;-6110.50;;;24.61
74449;BMP280;62878;51.026;4.472;2022-08-19T01:58:35;-6111.59;;;24.68
74449;BMP280;62878;51.026;4.472;2022-08-19T02:01:03;-6110.75;;;24.63
74449;BMP280;62878;51.026;4.472;2022-08-19T02:03:28;-6110.81;;;24.63
74449;BMP280;62878;51.026;4.472;2022-08-19T02:05:59;-6110.66;;;24.62
74449;BMP280;62878;51.026;4.472;2022-08-19T02:08:36;-6110.50;;;24.61
74449;BMP280;62878;51.026;4.472;2022-08-19T02:11:02;-6110.75;;;24.63
74449;BMP280;62878;51.026;4.472;2022-08-19T02:13:28;-6109.31;;;24.54
74449;BMP280;62878;51.026;4.472;2022-08-19T02:15:54;-6110.56;;;24.62
74449;BMP280;62878;51.026;4.472;2022-08-19T02:18:19;-6107.31;;;24.42
74449;BMP280;62878;51.026;4.472;2022-08-19T02:20:45;-6110.06;;;24.59
74449;BMP280;62878;51.026;4.472;2022-08-19T02:23:12;-6110.25;;;24.60
74449;BMP280;62878;51.026;4.472;2022-08-19T02:25:39;-6110.06;;;24.59
74449;BMP280;62878;51.026;4.472;2022-08-19T02:28:05;-6110.06;;;24.59
74449;BMP280;62878;51.026;4.472;2022-08-19T02:30:31;-6110.41;;;24.61
74449;BMP280;62878;51.026;4.472;2022-08-19T02:32:56;-6109.56;;;24.56
74449;BMP280;62878;51.026;4.472;2022-08-19T02:35:22;-6109.31;;;24.54
74449;BMP280;62878;51.026;4.472;2022-08-19T02:37:48;-6108.41;;;24.49
74449;BMP280;62878;51.026;4.472;2022-08-19T02:40:33;-6106.56;;;24.38
74449;BMP280;62878;51.026;4.472;2022-08-19T02:43:07;-6109.06;;;24.53
74449;BMP280;62878;51.026;4.472;2022-08-19T02:45:35;-6109.31;;;24.54
74449;BMP280;62878;51.026;4.472;2022-08-19T02:48:02;-6109.47;;;24.55
74449;BMP280;62878;51.026;4.472;2022-08-19T02:50:27;-6109.41;;;24.55
74449;BMP280;62878;51.026;4.472;2022-08-19T02:52:54;-6108.91;;;24.52
74449;BMP280;62878;51.026;4.472;2022-08-19T02:55:21;-6106.28;;;24.36
74449;BMP280;62878;51.026;4.472;2022-08-19T02:57:47;-6108.47;;;24.49
74449;BMP280;62878;51.026;4.472;2022-08-19T03:00:13;-6108.66;;;24.50
74449;BMP280;62878;51.026;4.472;2022-08-19T03:02:39;-6107.91;;;24.46
74449;BMP280;62878;51.026;4.472;2022-08-19T03:05:07;-6108.06;;;24.47
74449;BMP280;62878;51.026;4.472;2022-08-19T03:07:32;-6108.16;;;24.47
74449;BMP280;62878;51.026;4.472;2022-08-19T03:09:58;-6107.91;;;24.46
74449;BMP280;62878;51.026;4.472;2022-08-19T03:12:23;-6108.06;;;24.47
74449;BMP280;62878;51.026;4.472;2022-08-19T03:14:48;-6107.13;;;24.41
74449;BMP280;62878;51.026;4.472;2022-08-19T03:17:14;-6106.72;;;24.39
74449;BMP280;62878;51.026;4.472;2022-08-19T03:19:39;-6106.03;;;24.35
74449;BMP280;62878;51.026;4.472;2022-08-19T03:22:05;-6107.38;;;24.43
74449;BMP280;62878;51.026;4.472;2022-08-19T03:24:31;-6106.03;;;24.35
74449;BMP280;62878;51.026;4.472;2022-08-19T03:26:57;-6102.94;;;24.16
74449;BMP280;62878;51.026;4.472;2022-08-19T03:29:26;-6104.78;;;24.27
74449;BMP280;62878;51.026;4.472;2022-08-19T03:31:52;-6105.28;;;24.30
74449;BMP280;62878;51.026;4.472;2022-08-19T03:34:23;-6106.88;;;24.40
74449;BMP280;62878;51.026;4.472;2022-08-19T03:36:54;-6107.06;;;24.41
74449;BMP280;62878;51.026;4.472;2022-08-19T03:39:20;-6106.88;;;24.40
74449;BMP280;62878;51.026;4.472;2022-08-19T03:41:48;-6106.38;;;24.37
74449;BMP280;62878;51.026;4.472;2022-08-19T03:44:19;-6106.88;;;24.40
74449;BMP280;62878;51.026;4.472;2022-08-19T03:46:53;-6105.53;;;24.32
74449;BMP280;62878;51.026;4.472;2022-08-19T03:49:21;-6106.72;;;24.39
74449;BMP280;62878;51.026;4.472;2022-08-19T03:51:48;-6106.22;;;24.36
74449;BMP280;62878;51.026;4.472;2022-08-19T03:54:15;-6106.28;;;24.36
74449;BMP280;62878;51.026;4.472;2022-08-19T03:56:43;-6105.97;;;24.34
74449;BMP280;62878;51.026;4.472;2022-08-19T03:59:12;-6100.34;;;24.00
74449;BMP280;62878;51.026;4.472;2022-08-19T04:01:38;-6105.53;;;24.32
74449;BMP280;62878;51.026;4.472;2022-08-19T04:04:04;-6104.13;;;24.23
74449;BMP280;62878;51.026;4.472;2022-08-19T04:06:32;-6105.53;;;24.32
74449;BMP280;62878;51.026;4.472;2022-08-19T04:09:00;-6105.38;;;24.31
74449;BMP280;62878;51.026;4.472;2022-08-19T04:11:28;-6105.22;;;24.30
74449;BMP280;62878;51.026;4.472;2022-08-19T04:13:55;-6104.78;;;24.27
74449;BMP280;62878;51.026;4.472;2022-08-19T04:16:24;-6105.22;;;24.30
74449;BMP280;62878;51.026;4.472;2022-08-19T04:18:49;-6105.13;;;24.29
74449;BMP280;62878;51.026;4.472;2022-08-19T04:21:26;-6104.38;;;24.25
74449;BMP280;62878;51.026;4.472;2022-08-19T04:23:52;-6104.44;;;24.25
74449;BMP280;62878;51.026;4.472;2022-08-19T04:26:21;-6102.88;;;24.15
74449;BMP280;62878;51.026;4.472;2022-08-19T04:28:47;-6104.19;;;24.23
74449;BMP280;62878;51.026;4.472;2022-08-19T04:31:22;-6103.69;;;24.20
74449;BMP280;62878;51.026;4.472;2022-08-19T04:33:52;-6104.53;;;24.26
74449;BMP280;62878;51.026;4.472;2022-08-19T04:36:21;-6102.94;;;24.16
74449;BMP280;62878;51.026;4.472;2022-08-19T04:38:48;-6103.63;;;24.20
74449;BMP280;62878;51.026;4.472;2022-08-19T04:41:14;-6103.88;;;24.21
74449;BMP280;62878;51.026;4.472;2022-08-19T04:43:58;-6100.69;;;24.02
74449;BMP280;62878;51.026;4.472;2022-08-19T04:46:24;-6100.44;;;24.01
74449;BMP280;62878;51.026;4.472;2022-08-19T04:48:49;-6103.44;;;24.19
74449;BMP280;62878;51.026;4.472;2022-08-19T04:51:14;-6099.59;;;23.96
74449;BMP280;62878;51.026;4.472;2022-08-19T04:53:41;-6103.13;;;24.17
74449;BMP280;62878;51.026;4.472;2022-08-19T04:56:15;-6100.75;;;24.03
74449;BMP280;62878;51.026;4.472;2022-08-19T04:58:43;-6101.34;;;24.06
74449;BMP280;62878;51.026;4.472;2022-08-19T05:01:12;-6103.19;;;24.17
74449;BMP280;62878;51.026;4.472;2022-08-19T05:03:38;-6099.00;;;23.92
74449;BMP280;62878;51.026;4.472;2022-08-19T05:06:12;-6101.09;;;24.05
74449;BMP280;62878;51.026;4.472;2022-08-19T05:08:39;-6101.69;;;24.08
74449;BMP280;62878;51.026;4.472;2022-08-19T05:11:21;-6102.69;;;24.14
74449;BMP280;62878;51.026;4.472;2022-08-19T05:13:48;-6103.03;;;24.16
74449;BMP280;62878;51.026;4.472;2022-08-19T05:16:15;-6103.69;;;24.20
74449;BMP280;62878;51.026;4.472;2022-08-19T05:18:42;-6103.38;;;24.18
74449;BMP280;62878;51.026;4.472;2022-08-19T05:21:27;-6103.28;;;24.18
74449;BMP280;62878;51.026;4.472;2022-08-19T05:24:11;-6103.53;;;24.19
74449;BMP280;62878;51.026;4.472;2022-08-19T05:26:40;-6103.44;;;24.19
74449;BMP280;62878;51.026;4.472;2022-08-19T05:29:07;-6103.38;;;24.18
74449;BMP280;62878;51.026;4.472;2022-08-19T05:31:34;-6098.75;;;23.91
74449;BMP280;62878;51.026;4.472;2022-08-19T05:34:00;-6103.88;;;24.21
74449;BMP280;62878;51.026;4.472;2022-08-19T05:36:27;-6102.53;;;24.13
74449;BMP280;62878;51.026;4.472;2022-08-19T05:38:53;-6104.44;;;24.25
74449;BMP280;62878;51.026;4.472;2022-08-19T05:41:20;-6104.19;;;24.23
74449;BMP280;62878;51.026;4.472;2022-08-19T05:43:46;-6104.28;;;24.24
74449;BMP280;62878;51.026;4.472;2022-08-19T05:46:19;-6104.03;;;24.22
74449;BMP280;62878;51.026;4.472;2022-08-19T05:48:45;-6104.72;;;24.27
74449;BMP280;62878;51.026;4.472;2022-08-19T05:51:10;-6104.44;;;24.25
74449;BMP280;62878;51.026;4.472;2022-08-19T05:53:36;-6103.69;;;24.20
74449;BMP280;62878;51.026;4.472;2022-08-19T05:56:11;-6103.53;;;24.19
74449;BMP280;62878;51.026;4.472;2022-08-19T05:58:38;-6103.94;;;24.22
74449;BMP280;62878;51.026;4.472;2022-08-19T06:01:09;-6104.63;;;24.26
74449;BMP280;62878;51.026;4.472;2022-08-19T06:03:36;-6103.28;;;24.18
74449;BMP280;62878;51.026;4.472;2022-08-19T06:06:03;-6105.38;;;24.31
74449;BMP280;62878;51.026;4.472;2022-08-19T06:08:29;-6104.88;;;24.28
74449;BMP280;62878;51.026;4.472;2022-08-19T06:10:56;-6106.22;;;24.36
74449;BMP280;62878;51.026;4.472;2022-08-19T06:13:21;-6106.72;;;24.39
74449;BMP280;62878;51.026;4.472;2022-08-19T06:15:48;-6106.88;;;24.40
74449;BMP280;62878;51.026;4.472;2022-08-19T06:18:14;-6103.69;;;24.20
74449;BMP280;62878;51.026;4.472;2022-08-19T06:20:40;-6105.28;;;24.30
74449;BMP280;62878;51.026;4.472;2022-08-19T06:23:07;-6106.56;;;24.38
74449;BMP280;62878;51.026;4.472;2022-08-19T06:25:34;-6105.72;;;24.33
74449;BMP280;62878;51.026;4.472;2022-08-19T06:28:00;-6106.28;;;24.36
74449;BMP280;62878;51.026;4.472;2022-08-19T06:30:25;-6106.13;;;24.35
74449;BMP280;62878;51.026;4.472;2022-08-19T06:32:51;-6106.03;;;24.35
74449;BMP280;62878;51.026;4.472;2022-08-19T06:35:16;-6105.72;;;24.33
74449;BMP280;62878;51.026;4.472;2022-08-19T06:37:42;-6105.53;;;24.32
74449;BMP280;62878;51.026;4.472;2022-08-19T06:40:08;-6106.03;;;24.35
74449;BMP280;62878;51.026;4.472;2022-08-19T06:42:35;-6103.19;;;24.17
74449;BMP280;62878;51.026;4.472;2022-08-19T06:45:04;-6106.47;;;24.37
74449;BMP280;62878;51.026;4.472;2022-08-19T06:47:30;-6106.03;;;24.35
74449;BMP280;62878;51.026;4.472;2022-08-19T06:49:57;-6105.88;;;24.34
74449;BMP280;62878;51.026;4.472;2022-08-19T06:52:32;-6105.78;;;24.33
74449;BMP280;62878;51.026;4.472;2022-08-19T06:54:59;-6105.88;;;24.34
74449;BMP280;62878;51.026;4.472;2022-08-19T06:57:25;-6103.53;;;24.19
74449;BMP280;62878;51.026;4.472;2022-08-19T06:59:51;-6106.13;;;24.35
74449;BMP280;62878;51.026;4.472;2022-08-19T07:02:17;-6105.63;;;24.32
74449;BMP280;62878;51.026;4.472;2022-08-19T07:04:44;-6105.22;;;24.30
74449;BMP280;62878;51.026;4.472;2022-08-19T07:07:11;-6105.03;;;24.29
74449;BMP280;62878;51.026;4.472;2022-08-19T07:09:39;-6105.53;;;24.32
74449;BMP280;62878;51.026;4.472;2022-08-19T07:12:07;-6105.38;;;24.31
74449;BMP280;62878;51.026;4.472;2022-08-19T07:14:34;-6108.47;;;24.49
74449;BMP280;62878;51.026;4.472;2022-08-19T07:17:05;-6104.38;;;24.25
74449;BMP280;62878;51.026;4.472;2022-08-19T07:19:31;-6101.84;;;24.09
74449;BMP280;62878;51.026;4.472;2022-08-19T07:21:57;-6102.44;;;24.13
74449;BMP280;62878;51.026;4.472;2022-08-19T07:24:26;-6103.38;;;24.18
74449;BMP280;62878;51.026;4.472;2022-08-19T07:26:54;-6102.53;;;24.13
74449;BMP280;62878;51.026;4.472;2022-08-19T07:29:23;-6103.88;;;24.21
74449;BMP280;62878;51.026;4.472;2022-08-19T07:31:50;-6104.19;;;24.23
74449;BMP280;62878;51.026;4.472;2022-08-19T07:34:16;-6103.53;;;24.19
74449;BMP280;62878;51.026;4.472;2022-08-19T07:36:43;-6103.69;;;24.20
74449;BMP280;62878;51.026;4.472;2022-08-19T07:39:17;-6103.38;;;24.18
74449;BMP280;62878;51.026;4.472;2022-08-19T07:41:44;-6104.13;;;24.23
74449;BMP280;62878;51.026;4.472;2022-08-19T07:44:10;-6104.03;;;24.22
74449;BMP280;62878;51.026;4.472;2022-08-19T07:46:39;-6104.53;;;24.26
74449;BMP280;62878;51.026;4.472;2022-08-19T07:49:07;-6104.88;;;24.28
74449;BMP280;62878;51.026;4.472;2022-08-19T07:51:33;-6104.63;;;24.26
74449;BMP280;62878;51.026;4.472;2022-08-19T07:53:58;-6103.94;;;24.22
74449;BMP280;62878;51.026;4.472;2022-08-19T07:56:24;-6104.97;;;24.28
74449;BMP280;62878;51.026;4.472;2022-08-19T07:58:51;-6104.88;;;24.28
74449;BMP280;62878;51.026;4.472;2022-08-19T08:01:23;-6104.88;;;24.28
74449;BMP280;62878;51.026;4.472;2022-08-19T08:03:51;-6105.03;;;24.29
74449;BMP280;62878;51.026;4.472;2022-08-19T08:06:37;-6104.88;;;24.28
74449;BMP280;62878;51.026;4.472;2022-08-19T08:09:26;-6104.72;;;24.27
74449;BMP280;62878;51.026;4.472;2022-08-19T08:11:55;-6104.63;;;24.26
74449;BMP280;62878;51.026;4.472;2022-08-19T08:14:45;-6104.63;;;24.26
74449;BMP280;62878;51.026;4.472;2022-08-19T08:17:12;-6104.63;;;24.26
74449;BMP280;62878;51.026;4.472;2022-08-19T08:19:39;-6104.97;;;24.28
74449;BMP280;62878;51.026;4.472;2022-08-19T08:22:07;-6103.69;;;24.20
74449;BMP280;62878;51.026;4.472;2022-08-19T08:24:33;-6105.38;;;24.31
74449;BMP280;62878;51.026;4.472;2022-08-19T08:27:00;-6104.88;;;24.28
74449;BMP280;62878;51.026;4.472;2022-08-19T08:29:27;-6104.38;;;24.25
74449;BMP280;62878;51.026;4.472;2022-08-19T08:31:55;-6104.88;;;24.28
74449;BMP280;62878;51.026;4.472;2022-08-19T08:34:22;-6105.28;;;24.30
74449;BMP280;62878;51.026;4.472;2022-08-19T08:36:47;-6105.28;;;24.30
74449;BMP280;62878;51.026;4.472;2022-08-19T08:39:15;-6102.53;;;24.13
74449;BMP280;62878;51.026;4.472;2022-08-19T08:42:42;-6101.44;;;24.07
74449;BMP280;62878;51.026;4.472;2022-08-19T08:44:53;-6096.41;;;23.77
74449;BMP280;62878;51.026;4.472;2022-08-19T08:47:25;-6094.97;;;23.68
74449;BMP280;62878;51.026;4.472;2022-08-19T08:49:59;-6093.88;;;23.61
74449;BMP280;62878;51.026;4.472;2022-08-19T08:52:27;-6092.88;;;23.55
74449;BMP280;62878;51.026;4.472;2022-08-19T08:54:57;-6089.94;;;23.38
74449;BMP280;62878;51.026;4.472;2022-08-19T08:59:53;-6088.59;;;23.30
74449;BMP280;62878;51.026;4.472;2022-08-19T09:02:20;-6089.63;;;23.36
74449;BMP280;62878;51.026;4.472;2022-08-19T09:04:45;-6086.94;;;23.20
74449;BMP280;62878;51.026;4.472;2022-08-19T09:09:51;-6086.84;;;23.19
74449;BMP280;62878;51.026;4.472;2022-08-19T09:15:08;-6087.00;;;23.20
74449;BMP280;62878;51.026;4.472;2022-08-19T09:17:34;-6085.34;;;23.10
74449;BMP280;62878;51.026;4.472;2022-08-19T09:20:05;-6085.84;;;23.13
74449;BMP280;62878;51.026;4.472;2022-08-19T09:22:33;-6083.91;;;23.02
74449;BMP280;62878;51.026;4.472;2022-08-19T09:24:59;-6086.84;;;23.19
74449;BMP280;62878;51.026;4.472;2022-08-19T09:27:25;-6084.75;;;23.07
74449;BMP280;62878;51.026;4.472;2022-08-19T09:29:53;-6087.59;;;23.24
74449;BMP280;62878;51.026;4.472;2022-08-19T09:32:20;-6087.59;;;23.24
74449;BMP280;62878;51.026;4.472;2022-08-19T09:34:46;-6087.59;;;23.24
74449;BMP280;62878;51.026;4.472;2022-08-19T09:37:12;-6088.34;;;23.28
74449;BMP280;62878;51.026;4.472;2022-08-19T09:39:39;-6087.94;;;23.26
74449;BMP280;62878;51.026;4.472;2022-08-19T09:42:08;-6088.03;;;23.26
74449;BMP280;62878;51.026;4.472;2022-08-19T09:44:39;-6085.09;;;23.09
74449;BMP280;62878;51.026;4.472;2022-08-19T09:47:05;-6083.25;;;22.97
74449;BMP280;62878;51.026;4.472;2022-08-19T09:49:30;-6087.19;;;23.21
74449;BMP280;62878;51.026;4.472;2022-08-19T09:51:56;-6087.34;;;23.22
74449;BMP280;62878;51.026;4.472;2022-08-19T09:54:23;-6084.25;;;23.04
74449;BMP280;62878;51.026;4.472;2022-08-19T09:56:48;-6087.25;;;23.22
74449;BMP280;62878;51.026;4.472;2022-08-19T09:59:14;-6085.59;;;23.12
74449;BMP280;62878;51.026;4.472;2022-08-19T10:01:40;-6087.59;;;23.24
74449;BMP280;62878;51.026;4.472;2022-08-19T10:04:05;-6087.44;;;23.23
74449;BMP280;62878;51.026;4.472;2022-08-19T10:06:35;-6088.94;;;23.32
74449;BMP280;62878;51.026;4.472;2022-08-19T10:09:02;-6088.69;;;23.30
74449;BMP280;62878;51.026;4.472;2022-08-19T10:11:29;-6087.75;;;23.25
74449;BMP280;62878;51.026;4.472;2022-08-19T10:13:55;-6087.75;;;23.25
74449;BMP280;62878;51.026;4.472;2022-08-19T10:16:22;-6090.78;;;23.43
74449;BMP280;62878;51.026;4.472;2022-08-19T10:18:49;-6093.13;;;23.57
74449;BMP280;62878;51.026;4.472;2022-08-19T10:21:24;-6094.31;;;23.64
74449;BMP280;62878;51.026;4.472;2022-08-19T10:23:52;-6093.81;;;23.61
74449;BMP280;62878;51.026;4.472;2022-08-19T10:26:23;-6094.13;;;23.63
74449;BMP280;62878;51.026;4.472;2022-08-19T10:28:49;-6094.22;;;23.64
74449;BMP280;62878;51.026;4.472;2022-08-19T10:31:21;-6092.72;;;23.54
74449;BMP280;62878;51.026;4.472;2022-08-19T10:33:48;-6093.38;;;23.58
74449;BMP280;62878;51.026;4.472;2022-08-19T10:36:18;-6092.81;;;23.55
74449;BMP280;62878;51.026;4.472;2022-08-19T10:38:45;-6091.88;;;23.49
74449;BMP280;62878;51.026;4.472;2022-08-19T10:41:13;-6094.66;;;23.66
74449;BMP280;62878;51.026;4.472;2022-08-19T10:43:39;-6095.72;;;23.73
74449;BMP280;62878;51.026;4.472;2022-08-19T10:46:10;-6095.66;;;23.72
74449;BMP280;62878;51.026;4.472;2022-08-19T10:48:36;-6095.31;;;23.70
74449;BMP280;62878;51.026;4.472;2022-08-19T10:51:02;-6093.31;;;23.58
74449;BMP280;62878;51.026;4.472;2022-08-19T10:53:47;-6093.97;;;23.62
74449;BMP280;62878;51.026;4.472;2022-08-19T10:56:13;-6096.50;;;23.77
74449;BMP280;62878;51.026;4.472;2022-08-19T10:58:57;-6096.31;;;23.76
74449;BMP280;62878;51.026;4.472;2022-08-19T11:01:24;-6095.66;;;23.72
74449;BMP280;62878;51.026;4.472;2022-08-19T11:03:49;-6098.16;;;23.87
74449;BMP280;62878;51.026;4.472;2022-08-19T11:06:15;-6096.81;;;23.79
74449;BMP280;62878;51.026;4.472;2022-08-19T11:08:41;-6098.16;;;23.87
74449;BMP280;62878;51.026;4.472;2022-08-19T11:11:10;-6098.34;;;23.88
74449;BMP280;62878;51.026;4.472;2022-08-19T11:13:38;-6099.00;;;23.92
74449;BMP280;62878;51.026;4.472;2022-08-19T11:18:29;-6099.69;;;23.96
74449;BMP280;62878;51.026;4.472;2022-08-19T11:21:05;-6097.25;;;23.82
74449;BMP280;62878;51.026;4.472;2022-08-19T11:23:30;-6099.84;;;23.97
74449;BMP280;62878;51.026;4.472;2022-08-19T11:25:56;-6099.69;;;23.96
74449;BMP280;62878;51.026;4.472;2022-08-19T11:28:22;-6100.34;;;24.00
74449;BMP280;62878;51.026;4.472;2022-08-19T11:30:47;-6100.09;;;23.99
74449;BMP280;62878;51.026;4.472;2022-08-19T11:33:12;-6099.69;;;23.96
74449;BMP280;62878;51.026;4.472;2022-08-19T11:35:39;-6100.09;;;23.99
74449;BMP280;62878;51.026;4.472;2022-08-19T11:38:06;-6099.16;;;23.93
74449;BMP280;62878;51.026;4.472;2022-08-19T11:40:31;-6097.66;;;23.84
74449;BMP280;62878;51.026;4.472;2022-08-19T11:42:58;-6100.69;;;24.02
74449;BMP280;62878;51.026;4.472;2022-08-19T11:45:25;-6101.34;;;24.06
74449;BMP280;62878;51.026;4.472;2022-08-19T11:47:52;-6100.19;;;23.99
74449;BMP280;62878;51.026;4.472;2022-08-19T11:50:18;-6100.34;;;24.00
74449;BMP280;62878;51.026;4.472;2022-08-19T11:52:44;-6099.09;;;23.93
74449;BMP280;62878;51.026;4.472;2022-08-19T11:55:11;-6100.50;;;24.01
74449;BMP280;62878;51.026;4.472;2022-08-19T11:57:37;-6101.00;;;24.04
74449;BMP280;62878;51.026;4.472;2022-08-19T12:00:04;-6101.09;;;24.05
74449;BMP280;62878;51.026;4.472;2022-08-19T12:02:32;-6101.09;;;24.05
74449;BMP280;62878;51.026;4.472;2022-08-19T12:04:57;-6100.84;;;24.03
74449;BMP280;62878;51.026;4.472;2022-08-19T12:07:22;-6097.31;;;23.82
74449;BMP280;62878;51.026;4.472;2022-08-19T12:09:48;-6099.34;;;23.94
74449;BMP280;62878;51.026;4.472;2022-08-19T12:12:13;-6101.09;;;24.05
74449;BMP280;62878;51.026;4.472;2022-08-19T12:14:40;-6101.00;;;24.04
74449;BMP280;62878;51.026;4.472;2022-08-19T12:17:06;-6100.75;;;24.03
74449;BMP280;62878;51.026;4.472;2022-08-19T12:19:33;-6100.94;;;24.04
74449;BMP280;62878;51.026;4.472;2022-08-19T12:21:59;-6102.03;;;24.10
74449;BMP280;62878;51.026;4.472;2022-08-19T12:24:26;-6102.34;;;24.12
74449;BMP280;62878;51.026;4.472;2022-08-19T12:26:52;-6102.53;;;24.13
74449;BMP280;62878;51.026;4.472;2022-08-19T12:29:19;-6103.03;;;24.16
74449;BMP280;62878;51.026;4.472;2022-08-19T12:31:44;-6101.84;;;24.09
74449;BMP280;62878;51.026;4.472;2022-08-19T12:34:09;-6102.09;;;24.11
74449;BMP280;62878;51.026;4.472;2022-08-19T12:36:35;-6104.88;;;24.28
74449;BMP280;62878;51.026;4.472;2022-08-19T12:39:00;-6101.84;;;24.09
74449;BMP280;62878;51.026;4.472;2022-08-19T12:41:26;-6104.38;;;24.25
74449;BMP280;62878;51.026;4.472;2022-08-19T12:43:51;-6104.97;;;24.28
74449;BMP280;62878;51.026;4.472;2022-08-19T12:46:18;-6104.88;;;24.28
74449;BMP280;62878;51.026;4.472;2022-08-19T12:48:44;-6104.53;;;24.26
74449;BMP280;62878;51.026;4.472;2022-08-19T12:51:15;-6104.97;;;24.28
74449;BMP280;62878;51.026;4.472;2022-08-19T12:53:42;-6104.38;;;24.25
74449;BMP280;62878;51.026;4.472;2022-08-19T12:56:09;-6104.53;;;24.26
74449;BMP280;62878;51.026;4.472;2022-08-19T12:58:35;-6103.38;;;24.18
74449;BMP280;62878;51.026;4.472;2022-08-19T13:01:09;-6104.38;;;24.25
74449;BMP280;62878;51.026;4.472;2022-08-19T13:03:36;-6103.63;;;24.20
74449;BMP280;62878;51.026;4.472;2022-08-19T13:06:02;-6106.22;;;24.36
74449;BMP280;62878;51.026;4.472;2022-08-19T13:08:27;-6106.72;;;24.39
74449;BMP280;62878;51.026;4.472;2022-08-19T13:10:52;-6106.03;;;24.35
74449;BMP280;62878;51.026;4.472;2022-08-19T13:13:18;-6105.22;;;24.30
74449;BMP280;62878;51.026;4.472;2022-08-19T13:15:44;-6106.56;;;24.38
74449;BMP280;62878;51.026;4.472;2022-08-19T13:18:11;-6106.22;;;24.36
74449;BMP280;62878;51.026;4.472;2022-08-19T13:20:38;-6107.06;;;24.41
74449;BMP280;62878;51.026;4.472;2022-08-19T13:23:06;-6106.72;;;24.39
74449;BMP280;62878;51.026;4.472;2022-08-19T13:25:31;-6106.72;;;24.39
74449;BMP280;62878;51.026;4.472;2022-08-19T13:27:57;-6108.06;;;24.47
74449;BMP280;62878;51.026;4.472;2022-08-19T13:30:23;-6108.06;;;24.47
74449;BMP280;62878;51.026;4.472;2022-08-19T13:33:08;-6108.06;;;24.47
74449;BMP280;62878;51.026;4.472;2022-08-19T13:35:42;-6108.56;;;24.50
74449;BMP280;62878;51.026;4.472;2022-08-19T13:38:08;-6108.91;;;24.52
74449;BMP280;62878;51.026;4.472;2022-08-19T13:40:34;-6108.97;;;24.52
74449;BMP280;62878;51.026;4.472;2022-08-19T13:43:01;-6109.06;;;24.53
74449;BMP280;62878;51.026;4.472;2022-08-19T13:45:28;-6109.56;;;24.56
74449;BMP280;62878;51.026;4.472;2022-08-19T13:47:56;-6109.91;;;24.58
74449;BMP280;62878;51.026;4.472;2022-08-19T13:50:27;-6110.91;;;24.64
74449;BMP280;62878;51.026;4.472;2022-08-19T13:52:54;-6111.66;;;24.68
74449;BMP280;62878;51.026;4.472;2022-08-19T13:55:21;-6111.41;;;24.67
74449;BMP280;62878;51.026;4.472;2022-08-19T13:57:53;-6112.00;;;24.70
74449;BMP280;62878;51.026;4.472;2022-08-19T14:00:19;-6111.75;;;24.69
74449;BMP280;62878;51.026;4.472;2022-08-19T14:02:46;-6111.75;;;24.69
74449;BMP280;62878;51.026;4.472;2022-08-19T14:05:14;-6111.84;;;24.69
74449;BMP280;62878;51.026;4.472;2022-08-19T14:07:40;-6107.56;;;24.44
74449;BMP280;62878;51.026;4.472;2022-08-19T14:10:08;-6112.09;;;24.71
74449;BMP280;62878;51.026;4.472;2022-08-19T14:12:35;-6112.25;;;24.72
74449;BMP280;62878;51.026;4.472;2022-08-19T14:15:00;-6110.91;;;24.64
74449;BMP280;62878;51.026;4.472;2022-08-19T14:17:27;-6111.91;;;24.70
74449;BMP280;62878;51.026;4.472;2022-08-19T14:19:58;-6112.25;;;24.72
74449;BMP280;62878;51.026;4.472;2022-08-19T14:22:26;-6107.97;;;24.46